sensor_id;sensor_type;location;lat;lon;timestamp;temperature;humidity
79497;SHT31;75160;53.138;18.020;2024-01-25T00:00:13;7.44;77.25
79497;SHT31;75160;53.138;18.020;2024-01-25T00:01:36;7.42;77.38
79497;SHT31;75160;53.138;18.020;2024-01-25T00:02:38;7.42;77.40
79497;SHT31;75160;53.138;18.020;2024-01-25T00:03:39;7.41;77.43
79497;SHT31;75160;53.138;18.020;2024-01-25T00:04:41;7.40;77.53
79497;SHT31;75160;53.138;18.020;2024-01-25T00:05:43;7.39;77.65
79497;SHT31;75160;53.138;18.020;2024-01-25T00:06:45;7.38;77.78
79497;SHT31;75160;53.138;18.020;2024-01-25T00:07:47;7.37;77.72
79497;SHT31;75160;53.138;18.020;2024-01-25T00:08:50;7.37;77.72
79497;SHT31;75160;53.138;18.020;2024-01-25T00:09:52;7.37;77.72
79497;SHT31;75160;53.138;18.020;2024-01-25T00:10:53;7.36;77.80
79497;SHT31;75160;53.138;18.020;2024-01-25T00:11:55;7.35;77.78
79497;SHT31;75160;53.138;18.020;2024-01-25T00:12:57;7.33;77.80
79497;SHT31;75160;53.138;18.020;2024-01-25T00:13:59;7.34;77.85
79497;SHT31;75160;53.138;18.020;2024-01-25T00:15:00;7.33;77.90
79497;SHT31;75160;53.138;18.020;2024-01-25T00:16:02;7.33;77.97
79497;SHT31;75160;53.138;18.020;2024-01-25T00:17:05;7.33;77.90
79497;SHT31;75160;53.138;18.020;2024-01-25T00:18:07;7.32;77.97
79497;SHT31;75160;53.138;18.020;2024-01-25T00:19:08;7.33;78.00
79497;SHT31;75160;53.138;18.020;2024-01-25T00:20:10;7.32;78.00
79497;SHT31;75160;53.138;18.020;2024-01-25T00:21:12;7.31;77.97
79497;SHT31;75160;53.138;18.020;2024-01-25T00:22:14;7.30;78.07
79497;SHT31;75160;53.138;18.020;2024-01-25T00:23:16;7.30;78.03
79497;SHT31;75160;53.138;18.020;2024-01-25T00:24:17;7.29;78.13
79497;SHT31;75160;53.138;18.020;2024-01-25T00:25:19;7.28;78.15
79497;SHT31;75160;53.138;18.020;2024-01-25T00:26:21;7.27;78.22
79497;SHT31;75160;53.138;18.020;2024-01-25T00:27:23;7.25;78.25
79497;SHT31;75160;53.138;18.020;2024-01-25T00:28:25;7.24;78.28
79497;SHT31;75160;53.138;18.020;2024-01-25T00:29:27;7.25;78.38
79497;SHT31;75160;53.138;18.020;2024-01-25T00:30:30;7.23;78.40
79497;SHT31;75160;53.138;18.020;2024-01-25T00:31:32;7.22;78.55
79497;SHT31;75160;53.138;18.020;2024-01-25T00:32:33;7.22;78.50
79497;SHT31;75160;53.138;18.020;2024-01-25T00:33:35;7.21;78.53
79497;SHT31;75160;53.138;18.020;2024-01-25T00:34:37;7.18;78.70
79497;SHT31;75160;53.138;18.020;2024-01-25T00:35:39;7.18;78.70
79497;SHT31;75160;53.138;18.020;2024-01-25T00:36:42;7.17;78.88
79497;SHT31;75160;53.138;18.020;2024-01-25T00:37:44;7.15;78.85
79497;SHT31;75160;53.138;18.020;2024-01-25T00:38:46;7.16;78.90
79497;SHT31;75160;53.138;18.020;2024-01-25T00:39:48;7.13;79.03
79497;SHT31;75160;53.138;18.020;2024-01-25T00:40:51;7.13;79.00
79497;SHT31;75160;53.138;18.020;2024-01-25T00:41:53;7.10;79.22
79497;SHT31;75160;53.138;18.020;2024-01-25T00:43:07;7.07;79.25
79497;SHT31;75160;53.138;18.020;2024-01-25T00:44:09;7.07;79.25
79497;SHT31;75160;53.138;18.020;2024-01-25T00:45:11;7.05;79.28
79497;SHT31;75160;53.138;18.020;2024-01-25T00:46:14;7.03;79.28
79497;SHT31;75160;53.138;18.020;2024-01-25T00:47:16;7.05;79.25
79497;SHT31;75160;53.138;18.020;2024-01-25T00:48:18;7.03;79.30
79497;SHT31;75160;53.138;18.020;2024-01-25T00:49:20;7.02;79.25
79497;SHT31;75160;53.138;18.020;2024-01-25T00:50:22;7.01;79.20
79497;SHT31;75160;53.138;18.020;2024-01-25T00:51:27;7.01;79.13
79497;SHT31;75160;53.138;18.020;2024-01-25T00:52:29;7.00;78.97
79497;SHT31;75160;53.138;18.020;2024-01-25T00:53:31;7.02;78.95
79497;SHT31;75160;53.138;18.020;2024-01-25T00:54:34;7.01;78.90
79497;SHT31;75160;53.138;18.020;2024-01-25T00:55:36;7.00;78.88
79497;SHT31;75160;53.138;18.020;2024-01-25T00:56:38;7.00;78.88
79497;SHT31;75160;53.138;18.020;2024-01-25T00:57:40;7.00;78.80
79497;SHT31;75160;53.138;18.020;2024-01-25T00:58:43;7.01;78.78
79497;SHT31;75160;53.138;18.020;2024-01-25T00:59:45;7.02;78.80
79497;SHT31;75160;53.138;18.020;2024-01-25T01:00:47;7.01;78.70
79497;SHT31;75160;53.138;18.020;2024-01-25T01:01:49;7.00;78.70
79497;SHT31;75160;53.138;18.020;2024-01-25T01:02:54;6.99;78.57
79497;SHT31;75160;53.138;18.020;2024-01-25T01:04:00;7.00;78.50
79497;SHT31;75160;53.138;18.020;2024-01-25T01:05:03;7.01;78.53
79497;SHT31;75160;53.138;18.020;2024-01-25T01:06:06;7.00;78.47
79497;SHT31;75160;53.138;18.020;2024-01-25T01:07:09;7.01;78.32
79497;SHT31;75160;53.138;18.020;2024-01-25T01:08:11;7.03;78.20
79497;SHT31;75160;53.138;18.020;2024-01-25T01:09:14;7.04;78.20
79497;SHT31;75160;53.138;18.020;2024-01-25T01:10:15;7.04;78.03
79497;SHT31;75160;53.138;18.020;2024-01-25T01:11:18;7.03;77.90
79497;SHT31;75160;53.138;18.020;2024-01-25T01:12:20;7.06;77.90
79497;SHT31;75160;53.138;18.020;2024-01-25T01:13:22;7.06;77.70
79497;SHT31;75160;53.138;18.020;2024-01-25T01:14:23;7.07;77.70
79497;SHT31;75160;53.138;18.020;2024-01-25T01:15:25;7.07;77.60
79497;SHT31;75160;53.138;18.020;2024-01-25T01:16:27;7.09;77.43
79497;SHT31;75160;53.138;18.020;2024-01-25T01:17:32;7.10;77.40
79497;SHT31;75160;53.138;18.020;2024-01-25T01:18:33;7.09;77.32
79497;SHT31;75160;53.138;18.020;2024-01-25T01:19:35;7.11;77.32
79497;SHT31;75160;53.138;18.020;2024-01-25T01:20:37;7.13;77.38
79497;SHT31;75160;53.138;18.020;2024-01-25T01:21:39;7.13;77.40
79497;SHT31;75160;53.138;18.020;2024-01-25T01:22:45;7.13;77.13
79497;SHT31;75160;53.138;18.020;2024-01-25T01:23:46;7.12;77.22
79497;SHT31;75160;53.138;18.020;2024-01-25T01:24:48;7.12;77.30
79497;SHT31;75160;53.138;18.020;2024-01-25T01:25:50;7.12;77.30
79497;SHT31;75160;53.138;18.020;2024-01-25T01:26:51;7.11;77.32
79497;SHT31;75160;53.138;18.020;2024-01-25T01:27:53;7.10;77.32
79497;SHT31;75160;53.138;18.020;2024-01-25T01:28:55;7.11;77.30
79497;SHT31;75160;53.138;18.020;2024-01-25T01:29:57;7.10;77.40
79497;SHT31;75160;53.138;18.020;2024-01-25T01:30:59;7.10;77.40
79497;SHT31;75160;53.138;18.020;2024-01-25T01:32:00;7.10;77.40
79497;SHT31;75160;53.138;18.020;2024-01-25T01:33:02;7.08;77.28
79497;SHT31;75160;53.138;18.020;2024-01-25T01:34:04;7.08;77.20
79497;SHT31;75160;53.138;18.020;2024-01-25T01:35:06;7.10;77.28
79497;SHT31;75160;53.138;18.020;2024-01-25T01:36:08;7.10;77.22
79497;SHT31;75160;53.138;18.020;2024-01-25T01:37:10;7.11;77.30
79497;SHT31;75160;53.138;18.020;2024-01-25T01:38:11;7.09;77.05
79497;SHT31;75160;53.138;18.020;2024-01-25T01:39:13;7.10;76.90
79497;SHT31;75160;53.138;18.020;2024-01-25T01:40:15;7.10;76.80
79497;SHT31;75160;53.138;18.020;2024-01-25T01:41:17;7.09;76.72
79497;SHT31;75160;53.138;18.020;2024-01-25T01:42:19;7.07;76.82
79497;SHT31;75160;53.138;18.020;2024-01-25T01:43:21;7.08;76.72
79497;SHT31;75160;53.138;18.020;2024-01-25T01:44:24;7.09;76.70
79497;SHT31;75160;53.138;18.020;2024-01-25T01:45:26;7.11;76.80
79497;SHT31;75160;53.138;18.020;2024-01-25T01:47:39;7.11;76.70
79497;SHT31;75160;53.138;18.020;2024-01-25T01:48:41;7.10;76.70
79497;SHT31;75160;53.138;18.020;2024-01-25T01:49:43;7.11;76.68
79497;SHT31;75160;53.138;18.020;2024-01-25T01:50:45;7.11;76.70
79497;SHT31;75160;53.138;18.020;2024-01-25T01:51:48;7.11;76.70
79497;SHT31;75160;53.138;18.020;2024-01-25T01:52:51;7.11;76.75
79497;SHT31;75160;53.138;18.020;2024-01-25T01:53:53;7.11;76.70
79497;SHT31;75160;53.138;18.020;2024-01-25T01:54:56;7.10;76.70
79497;SHT31;75160;53.138;18.020;2024-01-25T01:55:59;7.11;76.70
79497;SHT31;75160;53.138;18.020;2024-01-25T01:57:01;7.11;76.70
79497;SHT31;75160;53.138;18.020;2024-01-25T01:58:03;7.12;76.75
79497;SHT31;75160;53.138;18.020;2024-01-25T01:59:07;7.10;76.80
79497;SHT31;75160;53.138;18.020;2024-01-25T02:00:11;7.12;76.72
79497;SHT31;75160;53.138;18.020;2024-01-25T02:01:17;7.11;76.75
79497;SHT31;75160;53.138;18.020;2024-01-25T02:02:19;7.11;76.70
79497;SHT31;75160;53.138;18.020;2024-01-25T02:03:21;7.12;76.68
79497;SHT31;75160;53.138;18.020;2024-01-25T02:04:23;7.12;76.70
79497;SHT31;75160;53.138;18.020;2024-01-25T02:05:25;7.12;76.63
79497;SHT31;75160;53.138;18.020;2024-01-25T02:06:27;7.12;76.63
79497;SHT31;75160;53.138;18.020;2024-01-25T02:07:29;7.11;76.70
79497;SHT31;75160;53.138;18.020;2024-01-25T02:08:32;7.12;76.72
79497;SHT31;75160;53.138;18.020;2024-01-25T02:09:34;7.12;76.70
79497;SHT31;75160;53.138;18.020;2024-01-25T02:10:36;7.14;76.70
79497;SHT31;75160;53.138;18.020;2024-01-25T02:11:38;7.14;76.60
79497;SHT31;75160;53.138;18.020;2024-01-25T02:12:40;7.14;76.38
79497;SHT31;75160;53.138;18.020;2024-01-25T02:13:41;7.12;76.40
79497;SHT31;75160;53.138;18.020;2024-01-25T02:14:43;7.11;76.30
79497;SHT31;75160;53.138;18.020;2024-01-25T02:15:46;7.12;76.30
79497;SHT31;75160;53.138;18.020;2024-01-25T02:16:48;7.10;76.20
79497;SHT31;75160;53.138;18.020;2024-01-25T02:17:49;7.10;76.28
79497;SHT31;75160;53.138;18.020;2024-01-25T02:18:51;7.11;76.30
79497;SHT31;75160;53.138;18.020;2024-01-25T02:19:55;7.07;76.18
79497;SHT31;75160;53.138;18.020;2024-01-25T02:20:57;7.09;76.22
79497;SHT31;75160;53.138;18.020;2024-01-25T02:21:59;7.07;76.20
79497;SHT31;75160;53.138;18.020;2024-01-25T02:23:01;7.09;76.28
79497;SHT31;75160;53.138;18.020;2024-01-25T02:24:02;7.07;76.15
79497;SHT31;75160;53.138;18.020;2024-01-25T02:25:05;7.09;76.05
79497;SHT31;75160;53.138;18.020;2024-01-25T02:26:07;7.07;76.05
79497;SHT31;75160;53.138;18.020;2024-01-25T02:27:09;7.08;76.03
79497;SHT31;75160;53.138;18.020;2024-01-25T02:28:10;7.09;76.03
79497;SHT31;75160;53.138;18.020;2024-01-25T02:29:12;7.10;76.07
79497;SHT31;75160;53.138;18.020;2024-01-25T02:30:14;7.08;75.97
79497;SHT31;75160;53.138;18.020;2024-01-25T02:31:16;7.07;75.97
79497;SHT31;75160;53.138;18.020;2024-01-25T02:32:17;7.08;76.00
79497;SHT31;75160;53.138;18.020;2024-01-25T02:33:19;7.09;75.97
79497;SHT31;75160;53.138;18.020;2024-01-25T02:34:21;7.09;75.85
79497;SHT31;75160;53.138;18.020;2024-01-25T02:35:23;7.08;75.72
79497;SHT31;75160;53.138;18.020;2024-01-25T02:36:24;7.07;75.65
79497;SHT31;75160;53.138;18.020;2024-01-25T02:37:26;7.07;75.68
79497;SHT31;75160;53.138;18.020;2024-01-25T02:38:28;7.08;75.60
79497;SHT31;75160;53.138;18.020;2024-01-25T02:39:30;7.09;75.68
79497;SHT31;75160;53.138;18.020;2024-01-25T02:40:31;7.08;75.70
79497;SHT31;75160;53.138;18.020;2024-01-25T02:41:33;7.08;75.70
79497;SHT31;75160;53.138;18.020;2024-01-25T02:42:35;7.07;75.75
79497;SHT31;75160;53.138;18.020;2024-01-25T02:43:37;7.08;75.78
79497;SHT31;75160;53.138;18.020;2024-01-25T02:44:39;7.07;75.80
79497;SHT31;75160;53.138;18.020;2024-01-25T02:45:41;7.05;75.65
79497;SHT31;75160;53.138;18.020;2024-01-25T02:46:42;7.06;75.65
79497;SHT31;75160;53.138;18.020;2024-01-25T02:47:46;7.05;75.78
79497;SHT31;75160;53.138;18.020;2024-01-25T02:48:47;7.04;75.75
79497;SHT31;75160;53.138;18.020;2024-01-25T02:49:49;7.04;75.80
79497;SHT31;75160;53.138;18.020;2024-01-25T02:50:51;7.03;75.85
79497;SHT31;75160;53.138;18.020;2024-01-25T02:51:53;7.03;75.90
79497;SHT31;75160;53.138;18.020;2024-01-25T02:52:55;7.02;75.80
79497;SHT31;75160;53.138;18.020;2024-01-25T02:53:57;6.99;75.90
79497;SHT31;75160;53.138;18.020;2024-01-25T02:54:58;6.99;76.10
79497;SHT31;75160;53.138;18.020;2024-01-25T02:56:00;6.99;76.25
79497;SHT31;75160;53.138;18.020;2024-01-25T02:57:02;6.95;76.32
79497;SHT31;75160;53.138;18.020;2024-01-25T02:58:05;6.95;76.43
79497;SHT31;75160;53.138;18.020;2024-01-25T02:59:07;6.93;76.50
79497;SHT31;75160;53.138;18.020;2024-01-25T03:00:08;6.92;76.60
79497;SHT31;75160;53.138;18.020;2024-01-25T03:01:11;6.92;76.70
79497;SHT31;75160;53.138;18.020;2024-01-25T03:02:13;6.91;76.78
79497;SHT31;75160;53.138;18.020;2024-01-25T03:03:15;6.89;76.88
79497;SHT31;75160;53.138;18.020;2024-01-25T03:04:17;6.89;76.90
79497;SHT31;75160;53.138;18.020;2024-01-25T03:05:19;6.89;77.03
79497;SHT31;75160;53.138;18.020;2024-01-25T03:06:21;6.90;77.07
79497;SHT31;75160;53.138;18.020;2024-01-25T03:07:23;6.88;77.10
79497;SHT31;75160;53.138;18.020;2024-01-25T03:08:25;6.89;77.15
79497;SHT31;75160;53.138;18.020;2024-01-25T03:09:26;6.87;77.22
79497;SHT31;75160;53.138;18.020;2024-01-25T03:10:29;6.87;77.22
79497;SHT31;75160;53.138;18.020;2024-01-25T03:11:31;6.88;77.35
79497;SHT31;75160;53.138;18.020;2024-01-25T03:12:32;6.86;77.40
79497;SHT31;75160;53.138;18.020;2024-01-25T03:13:34;6.85;77.50
79497;SHT31;75160;53.138;18.020;2024-01-25T03:14:36;6.86;77.43
79497;SHT31;75160;53.138;18.020;2024-01-25T03:15:38;6.84;77.55
79497;SHT31;75160;53.138;18.020;2024-01-25T03:16:39;6.83;77.60
79497;SHT31;75160;53.138;18.020;2024-01-25T03:17:41;6.81;77.60
79497;SHT31;75160;53.138;18.020;2024-01-25T03:18:43;6.82;77.55
79497;SHT31;75160;53.138;18.020;2024-01-25T03:19:45;6.80;77.50
79497;SHT31;75160;53.138;18.020;2024-01-25T03:20:46;6.79;77.57
79497;SHT31;75160;53.138;18.020;2024-01-25T03:21:52;6.80;77.65
79497;SHT31;75160;53.138;18.020;2024-01-25T03:22:55;6.78;77.60
79497;SHT31;75160;53.138;18.020;2024-01-25T03:23:57;6.78;77.68
79497;SHT31;75160;53.138;18.020;2024-01-25T03:25:00;6.77;77.70
79497;SHT31;75160;53.138;18.020;2024-01-25T03:26:02;6.75;77.75
79497;SHT31;75160;53.138;18.020;2024-01-25T03:27:03;6.76;77.75
79497;SHT31;75160;53.138;18.020;2024-01-25T03:28:05;6.78;77.80
79497;SHT31;75160;53.138;18.020;2024-01-25T03:29:07;6.77;77.88
79497;SHT31;75160;53.138;18.020;2024-01-25T03:30:09;6.74;77.97
79497;SHT31;75160;53.138;18.020;2024-01-25T03:31:12;6.74;78.07
79497;SHT31;75160;53.138;18.020;2024-01-25T03:32:13;6.74;78.20
79497;SHT31;75160;53.138;18.020;2024-01-25T03:33:15;6.72;78.30
79497;SHT31;75160;53.138;18.020;2024-01-25T03:34:17;6.71;78.38
79497;SHT31;75160;53.138;18.020;2024-01-25T03:35:19;6.71;78.47
79497;SHT31;75160;53.138;18.020;2024-01-25T03:36:20;6.70;78.45
79497;SHT31;75160;53.138;18.020;2024-01-25T03:37:22;6.68;78.50
79497;SHT31;75160;53.138;18.020;2024-01-25T03:38:24;6.68;78.47
79497;SHT31;75160;53.138;18.020;2024-01-25T03:39:26;6.67;78.60
79497;SHT31;75160;53.138;18.020;2024-01-25T03:40:27;6.67;78.68
79497;SHT31;75160;53.138;18.020;2024-01-25T03:41:29;6.67;78.68
79497;SHT31;75160;53.138;18.020;2024-01-25T03:42:31;6.67;78.82
79497;SHT31;75160;53.138;18.020;2024-01-25T03:43:33;6.66;78.82
79497;SHT31;75160;53.138;18.020;2024-01-25T03:44:35;6.64;78.93
79497;SHT31;75160;53.138;18.020;2024-01-25T03:45:36;6.64;79.07
79497;SHT31;75160;53.138;18.020;2024-01-25T03:46:38;6.64;79.07
79497;SHT31;75160;53.138;18.020;2024-01-25T03:47:40;6.61;79.18
79497;SHT31;75160;53.138;18.020;2024-01-25T03:48:41;6.60;79.30
79497;SHT31;75160;53.138;18.020;2024-01-25T03:49:43;6.59;79.35
79497;SHT31;75160;53.138;18.020;2024-01-25T03:50:46;6.59;79.35
79497;SHT31;75160;53.138;18.020;2024-01-25T03:51:48;6.56;79.43
79497;SHT31;75160;53.138;18.020;2024-01-25T03:52:51;6.55;79.53
79497;SHT31;75160;53.138;18.020;2024-01-25T03:53:52;6.54;79.57
79497;SHT31;75160;53.138;18.020;2024-01-25T03:54:56;6.54;79.65
79497;SHT31;75160;53.138;18.020;2024-01-25T03:55:58;6.52;79.63
79497;SHT31;75160;53.138;18.020;2024-01-25T03:57:00;6.53;79.70
79497;SHT31;75160;53.138;18.020;2024-01-25T03:58:02;6.51;79.65
79497;SHT31;75160;53.138;18.020;2024-01-25T03:59:04;6.49;79.80
79497;SHT31;75160;53.138;18.020;2024-01-25T04:00:06;6.49;79.75
79497;SHT31;75160;53.138;18.020;2024-01-25T04:01:08;6.47;79.78
79497;SHT31;75160;53.138;18.020;2024-01-25T04:02:10;6.46;79.97
79497;SHT31;75160;53.138;18.020;2024-01-25T04:03:12;6.45;79.97
79497;SHT31;75160;53.138;18.020;2024-01-25T04:04:17;6.43;80.15
79497;SHT31;75160;53.138;18.020;2024-01-25T04:05:18;6.43;80.20
79497;SHT31;75160;53.138;18.020;2024-01-25T04:06:20;6.43;80.25
79497;SHT31;75160;53.138;18.020;2024-01-25T04:07:22;6.43;80.25
79497;SHT31;75160;53.138;18.020;2024-01-25T04:08:23;6.42;80.20
79497;SHT31;75160;53.138;18.020;2024-01-25T04:09:25;6.41;80.20
79497;SHT31;75160;53.138;18.020;2024-01-25T04:10:27;6.43;80.28
79497;SHT31;75160;53.138;18.020;2024-01-25T04:11:29;6.42;80.20
79497;SHT31;75160;53.138;18.020;2024-01-25T04:12:30;6.44;80.20
79497;SHT31;75160;53.138;18.020;2024-01-25T04:13:33;6.43;80.20
79497;SHT31;75160;53.138;18.020;2024-01-25T04:14:35;6.43;80.30
79497;SHT31;75160;53.138;18.020;2024-01-25T04:15:37;6.43;80.28
79497;SHT31;75160;53.138;18.020;2024-01-25T04:16:39;6.43;80.35
79497;SHT31;75160;53.138;18.020;2024-01-25T04:17:41;6.44;80.35
79497;SHT31;75160;53.138;18.020;2024-01-25T04:18:43;6.42;80.45
79497;SHT31;75160;53.138;18.020;2024-01-25T04:19:45;6.43;80.47
79497;SHT31;75160;53.138;18.020;2024-01-25T04:20:47;6.41;80.60
79497;SHT31;75160;53.138;18.020;2024-01-25T04:21:48;6.41;80.68
79497;SHT31;75160;53.138;18.020;2024-01-25T04:22:50;6.41;80.68
79497;SHT31;75160;53.138;18.020;2024-01-25T04:23:52;6.41;80.75
79497;SHT31;75160;53.138;18.020;2024-01-25T04:24:54;6.40;80.60
79497;SHT31;75160;53.138;18.020;2024-01-25T04:25:55;6.39;80.65
79497;SHT31;75160;53.138;18.020;2024-01-25T04:26:57;6.39;80.63
79497;SHT31;75160;53.138;18.020;2024-01-25T04:27:59;6.39;80.70
79497;SHT31;75160;53.138;18.020;2024-01-25T04:29:01;6.38;80.72
79497;SHT31;75160;53.138;18.020;2024-01-25T04:30:03;6.39;80.72
79497;SHT31;75160;53.138;18.020;2024-01-25T04:31:06;6.39;80.85
79497;SHT31;75160;53.138;18.020;2024-01-25T04:32:07;6.39;80.88
79497;SHT31;75160;53.138;18.020;2024-01-25T04:33:09;6.40;80.85
79497;SHT31;75160;53.138;18.020;2024-01-25T04:34:14;6.40;80.82
79497;SHT31;75160;53.138;18.020;2024-01-25T04:35:17;6.39;80.82
79497;SHT31;75160;53.138;18.020;2024-01-25T04:36:19;6.39;80.78
79497;SHT31;75160;53.138;18.020;2024-01-25T04:37:20;6.39;80.78
79497;SHT31;75160;53.138;18.020;2024-01-25T04:38:22;6.38;80.88
79497;SHT31;75160;53.138;18.020;2024-01-25T04:39:24;6.39;80.90
79497;SHT31;75160;53.138;18.020;2024-01-25T04:40:25;6.39;80.95
79497;SHT31;75160;53.138;18.020;2024-01-25T04:41:27;6.39;80.95
79497;SHT31;75160;53.138;18.020;2024-01-25T04:42:29;6.38;80.93
79497;SHT31;75160;53.138;18.020;2024-01-25T04:43:34;6.39;80.95
79497;SHT31;75160;53.138;18.020;2024-01-25T04:44:39;6.39;80.93
79497;SHT31;75160;53.138;18.020;2024-01-25T04:45:41;6.42;81.10
79497;SHT31;75160;53.138;18.020;2024-01-25T04:46:43;6.43;81.10
79497;SHT31;75160;53.138;18.020;2024-01-25T04:47:45;6.43;81.03
79497;SHT31;75160;53.138;18.020;2024-01-25T04:48:47;6.41;81.05
79497;SHT31;75160;53.138;18.020;2024-01-25T04:49:48;6.43;81.05
79497;SHT31;75160;53.138;18.020;2024-01-25T04:50:50;6.43;81.00
79497;SHT31;75160;53.138;18.020;2024-01-25T04:51:52;6.45;81.05
79497;SHT31;75160;53.138;18.020;2024-01-25T04:52:54;6.45;81.18
79497;SHT31;75160;53.138;18.020;2024-01-25T04:53:55;6.43;81.20
79497;SHT31;75160;53.138;18.020;2024-01-25T04:54:57;6.43;81.18
79497;SHT31;75160;53.138;18.020;2024-01-25T04:55:59;6.42;81.28
79497;SHT31;75160;53.138;18.020;2024-01-25T04:57:01;6.41;81.35
79497;SHT31;75160;53.138;18.020;2024-01-25T04:58:03;6.40;81.35
79497;SHT31;75160;53.138;18.020;2024-01-25T04:59:05;6.40;81.47
79497;SHT31;75160;53.138;18.020;2024-01-25T05:00:07;6.39;81.53
79497;SHT31;75160;53.138;18.020;2024-01-25T05:01:10;6.40;81.57
79497;SHT31;75160;53.138;18.020;2024-01-25T05:02:13;6.40;81.55
79497;SHT31;75160;53.138;18.020;2024-01-25T05:03:14;6.39;81.63
79497;SHT31;75160;53.138;18.020;2024-01-25T05:04:16;6.41;81.63
79497;SHT31;75160;53.138;18.020;2024-01-25T05:05:18;6.41;81.60
79497;SHT31;75160;53.138;18.020;2024-01-25T05:06:19;6.41;81.63
79497;SHT31;75160;53.138;18.020;2024-01-25T05:07:21;6.41;81.65
79497;SHT31;75160;53.138;18.020;2024-01-25T05:08:23;6.41;81.60
79497;SHT31;75160;53.138;18.020;2024-01-25T05:09:25;6.42;81.70
79497;SHT31;75160;53.138;18.020;2024-01-25T05:10:27;6.42;81.72
79497;SHT31;75160;53.138;18.020;2024-01-25T05:11:28;6.43;81.70
79497;SHT31;75160;53.138;18.020;2024-01-25T05:12:30;6.43;81.70
79497;SHT31;75160;53.138;18.020;2024-01-25T05:13:32;6.42;81.70
79497;SHT31;75160;53.138;18.020;2024-01-25T05:14:34;6.43;81.65
79497;SHT31;75160;53.138;18.020;2024-01-25T05:15:36;6.43;81.82
79497;SHT31;75160;53.138;18.020;2024-01-25T05:16:38;6.43;81.80
79497;SHT31;75160;53.138;18.020;2024-01-25T05:17:40;6.42;81.85
79497;SHT31;75160;53.138;18.020;2024-01-25T05:18:41;6.41;81.85
79497;SHT31;75160;53.138;18.020;2024-01-25T05:19:43;6.42;81.90
79497;SHT31;75160;53.138;18.020;2024-01-25T05:20:45;6.42;81.88
79497;SHT31;75160;53.138;18.020;2024-01-25T05:21:46;6.42;81.93
79497;SHT31;75160;53.138;18.020;2024-01-25T05:22:48;6.42;81.90
79497;SHT31;75160;53.138;18.020;2024-01-25T05:23:50;6.43;81.90
79497;SHT31;75160;53.138;18.020;2024-01-25T05:24:52;6.43;81.88
79497;SHT31;75160;53.138;18.020;2024-01-25T05:25:53;6.44;81.90
79497;SHT31;75160;53.138;18.020;2024-01-25T05:26:55;6.43;81.90
79497;SHT31;75160;53.138;18.020;2024-01-25T05:27:57;6.44;81.88
79497;SHT31;75160;53.138;18.020;2024-01-25T05:29:00;6.44;81.75
79497;SHT31;75160;53.138;18.020;2024-01-25T05:30:01;6.44;81.78
79497;SHT31;75160;53.138;18.020;2024-01-25T05:31:04;6.44;81.80
79497;SHT31;75160;53.138;18.020;2024-01-25T05:32:06;6.46;81.75
79497;SHT31;75160;53.138;18.020;2024-01-25T05:33:08;6.46;81.75
79497;SHT31;75160;53.138;18.020;2024-01-25T05:34:10;6.47;81.80
79497;SHT31;75160;53.138;18.020;2024-01-25T05:35:12;6.47;81.80
79497;SHT31;75160;53.138;18.020;2024-01-25T05:36:14;6.45;81.90
79497;SHT31;75160;53.138;18.020;2024-01-25T05:37:16;6.47;81.93
79497;SHT31;75160;53.138;18.020;2024-01-25T05:38:18;6.47;81.85
79497;SHT31;75160;53.138;18.020;2024-01-25T05:39:19;6.47;81.90
79497;SHT31;75160;53.138;18.020;2024-01-25T05:40:21;6.49;81.90
79497;SHT31;75160;53.138;18.020;2024-01-25T05:41:23;6.49;81.90
79497;SHT31;75160;53.138;18.020;2024-01-25T05:42:25;6.49;81.93
79497;SHT31;75160;53.138;18.020;2024-01-25T05:43:27;6.49;81.82
79497;SHT31;75160;53.138;18.020;2024-01-25T05:44:29;6.50;81.88
79497;SHT31;75160;53.138;18.020;2024-01-25T05:45:30;6.49;81.95
79497;SHT31;75160;53.138;18.020;2024-01-25T05:46:32;6.50;81.93
79497;SHT31;75160;53.138;18.020;2024-01-25T05:47:34;6.49;81.90
79497;SHT31;75160;53.138;18.020;2024-01-25T05:48:36;6.50;81.85
79497;SHT31;75160;53.138;18.020;2024-01-25T05:49:37;6.51;81.80
79497;SHT31;75160;53.138;18.020;2024-01-25T05:50:39;6.51;81.80
79497;SHT31;75160;53.138;18.020;2024-01-25T05:51:41;6.51;81.82
79497;SHT31;75160;53.138;18.020;2024-01-25T05:52:43;6.50;81.82
79497;SHT31;75160;53.138;18.020;2024-01-25T05:53:44;6.51;81.80
79497;SHT31;75160;53.138;18.020;2024-01-25T05:54:46;6.51;81.80
79497;SHT31;75160;53.138;18.020;2024-01-25T05:55:48;6.51;81.82
79497;SHT31;75160;53.138;18.020;2024-01-25T05:56:50;6.51;81.80
79497;SHT31;75160;53.138;18.020;2024-01-25T05:57:51;6.50;81.80
79497;SHT31;75160;53.138;18.020;2024-01-25T05:58:53;6.50;81.78
79497;SHT31;75160;53.138;18.020;2024-01-25T05:59:55;6.51;81.75
79497;SHT31;75160;53.138;18.020;2024-01-25T06:00:57;6.51;81.78
79497;SHT31;75160;53.138;18.020;2024-01-25T06:01:58;6.54;81.78
79497;SHT31;75160;53.138;18.020;2024-01-25T06:03:00;6.53;81.78
79497;SHT31;75160;53.138;18.020;2024-01-25T06:04:02;6.54;81.65
79497;SHT31;75160;53.138;18.020;2024-01-25T06:05:04;6.55;81.63
79497;SHT31;75160;53.138;18.020;2024-01-25T06:06:06;6.54;81.45
79497;SHT31;75160;53.138;18.020;2024-01-25T06:07:09;6.57;81.35
79497;SHT31;75160;53.138;18.020;2024-01-25T06:08:11;6.59;81.40
79497;SHT31;75160;53.138;18.020;2024-01-25T06:09:12;6.58;81.40
79497;SHT31;75160;53.138;18.020;2024-01-25T06:10:16;6.60;81.35
79497;SHT31;75160;53.138;18.020;2024-01-25T06:11:18;6.60;81.30
79497;SHT31;75160;53.138;18.020;2024-01-25T06:12:19;6.58;81.15
79497;SHT31;75160;53.138;18.020;2024-01-25T06:13:21;6.59;81.07
79497;SHT31;75160;53.138;18.020;2024-01-25T06:14:23;6.60;81.00
79497;SHT31;75160;53.138;18.020;2024-01-25T06:15:25;6.62;81.00
79497;SHT31;75160;53.138;18.020;2024-01-25T06:16:27;6.64;81.03
79497;SHT31;75160;53.138;18.020;2024-01-25T06:17:30;6.63;81.00
79497;SHT31;75160;53.138;18.020;2024-01-25T06:18:32;6.64;81.00
79497;SHT31;75160;53.138;18.020;2024-01-25T06:19:34;6.65;81.03
79497;SHT31;75160;53.138;18.020;2024-01-25T06:20:35;6.65;81.00
79497;SHT31;75160;53.138;18.020;2024-01-25T06:21:37;6.66;80.95
79497;SHT31;75160;53.138;18.020;2024-01-25T06:22:39;6.67;80.82
79497;SHT31;75160;53.138;18.020;2024-01-25T06:23:41;6.66;80.90
79497;SHT31;75160;53.138;18.020;2024-01-25T06:24:43;6.67;80.80
79497;SHT31;75160;53.138;18.020;2024-01-25T06:25:44;6.66;80.80
79497;SHT31;75160;53.138;18.020;2024-01-25T06:26:46;6.68;80.82
79497;SHT31;75160;53.138;18.020;2024-01-25T06:27:48;6.68;80.88
79497;SHT31;75160;53.138;18.020;2024-01-25T06:28:50;6.68;80.70
79497;SHT31;75160;53.138;18.020;2024-01-25T06:29:52;6.68;80.72
79497;SHT31;75160;53.138;18.020;2024-01-25T06:30:54;6.70;80.75
79497;SHT31;75160;53.138;18.020;2024-01-25T06:31:55;6.70;80.70
79497;SHT31;75160;53.138;18.020;2024-01-25T06:32:57;6.71;80.65